createdAt,value
2018-10-16T00:01:59.421Z,14.13
2018-10-16T00:04:28.244Z,14.14
2018-10-16T00:06:57.041Z,14.12
2018-10-16T00:09:25.834Z,14.08
2018-10-16T00:12:03.869Z,14.04
2018-10-16T00:14:32.909Z,13.99
2018-10-16T00:17:02.678Z,13.96
2018-10-16T00:19:31.864Z,13.96
2018-10-16T00:22:00.653Z,13.96
2018-10-16T00:24:29.478Z,13.98
2018-10-16T00:26:58.268Z,13.98
2018-10-16T00:29:27.100Z,13.98
2018-10-16T00:31:55.915Z,13.98
2018-10-16T00:34:24.680Z,14.01
2018-10-16T00:36:53.488Z,14.06
2018-10-16T00:39:22.293Z,14.10
2018-10-16T00:41:53.089Z,14.11
2018-10-16T00:44:22.009Z,14.19
2018-10-16T00:46:50.787Z,14.23
2018-10-16T00:49:19.568Z,14.25
2018-10-16T00:51:48.344Z,14.28
2018-10-16T00:54:17.149Z,14.30
2018-10-16T00:56:45.929Z,14.36
2018-10-16T00:59:14.753Z,14.41
2018-10-16T01:01:43.533Z,14.43
2018-10-16T01:04:12.329Z,14.41
2018-10-16T01:06:41.109Z,14.39
2018-10-16T01:09:12.040Z,14.38
2018-10-16T01:11:41.058Z,14.32
2018-10-16T01:14:09.876Z,14.30
2018-10-16T01:16:38.693Z,14.27
2018-10-16T01:19:07.513Z,14.25
2018-10-16T01:21:36.313Z,14.24
2018-10-16T01:24:05.381Z,14.24
2018-10-16T01:26:34.185Z,14.17
2018-10-16T01:29:02.976Z,14.11
2018-10-16T01:31:31.865Z,14.11
2018-10-16T01:34:00.650Z,14.12
2018-10-16T01:36:29.457Z,14.12
2018-10-16T01:38:58.261Z,14.13
2018-10-16T01:41:27.048Z,14.06
2018-10-16T01:43:55.826Z,14.05
2018-10-16T01:46:24.625Z,14.04
2018-10-16T01:48:53.423Z,14.04
2018-10-16T01:51:22.194Z,14.01
2018-10-16T01:53:50.989Z,13.96
2018-10-16T01:56:19.772Z,13.91
2018-10-16T01:58:48.597Z,13.90
2018-10-16T02:01:17.384Z,13.90
2018-10-16T02:03:46.179Z,13.93
2018-10-16T02:06:14.966Z,13.93
2018-10-16T02:08:43.790Z,13.92
2018-10-16T02:11:12.652Z,13.90
2018-10-16T02:13:41.492Z,13.91
2018-10-16T02:16:10.363Z,13.93
2018-10-16T02:18:39.172Z,13.96
2018-10-16T02:21:08.070Z,14.01
2018-10-16T02:23:37.239Z,14.09
2018-10-16T02:26:06.507Z,14.12
2018-10-16T02:28:38.309Z,14.12
2018-10-16T02:31:07.128Z,14.11
2018-10-16T02:33:35.951Z,14.12
2018-10-16T02:36:04.797Z,14.13
2018-10-16T02:38:33.622Z,14.17
2018-10-16T02:41:02.430Z,14.24
2018-10-16T02:43:31.285Z,14.31
2018-10-16T02:46:00.090Z,14.36
2018-10-16T02:48:28.910Z,14.43
2018-10-16T02:50:57.708Z,14.48
2018-10-16T02:53:26.501Z,14.53
2018-10-16T02:55:55.282Z,14.57
2018-10-16T02:58:24.138Z,14.56
2018-10-16T03:00:52.924Z,14.59
2018-10-16T03:03:21.719Z,14.59
2018-10-16T03:05:50.548Z,14.57
2018-10-16T03:08:19.557Z,14.56
2018-10-16T03:10:48.378Z,14.57
2018-10-16T03:13:17.212Z,14.54
2018-10-16T03:15:46.005Z,14.53
2018-10-16T03:18:14.892Z,14.51
2018-10-16T03:20:43.757Z,14.51
2018-10-16T03:23:12.561Z,14.50
2018-10-16T03:25:41.361Z,14.51
2018-10-16T03:28:10.163Z,14.50
2018-10-16T03:30:38.960Z,14.52
2018-10-16T03:33:07.773Z,14.51
2018-10-16T03:35:36.557Z,14.51
2018-10-16T03:38:05.545Z,14.48
2018-10-16T03:40:34.325Z,14.46
2018-10-16T03:43:03.117Z,14.41
2018-10-16T03:45:31.905Z,14.38
2018-10-16T03:48:00.720Z,14.41
2018-10-16T03:50:29.506Z,14.44
2018-10-16T03:52:58.312Z,14.48
2018-10-16T03:55:27.104Z,14.52
2018-10-16T03:57:55.912Z,14.54
2018-10-16T04:00:24.706Z,14.55
2018-10-16T04:02:53.493Z,14.57
2018-10-16T04:05:22.429Z,14.57
2018-10-16T04:07:51.244Z,14.54
2018-10-16T04:10:20.030Z,14.53
2018-10-16T04:12:49.854Z,14.52
2018-10-16T04:15:18.697Z,14.51
2018-10-16T04:17:47.547Z,14.52
2018-10-16T04:20:16.302Z,14.48
2018-10-16T04:22:45.163Z,14.44
2018-10-16T04:25:13.889Z,14.42
2018-10-16T04:27:42.674Z,14.39
2018-10-16T04:30:11.433Z,14.34
2018-10-16T04:32:40.213Z,14.28
2018-10-16T04:35:11.597Z,14.29
2018-10-16T04:37:40.382Z,14.31
2018-10-16T04:40:08.869Z,14.33
2018-10-16T04:42:37.661Z,14.35
2018-10-16T04:45:07.175Z,14.37
2018-10-16T04:47:35.974Z,14.41
2018-10-16T04:50:04.825Z,14.40
2018-10-16T04:52:33.582Z,14.39
2018-10-16T04:55:02.443Z,14.38
2018-10-16T04:57:31.202Z,14.37
2018-10-16T05:00:00.002Z,14.36
2018-10-16T05:02:28.794Z,14.35
2018-10-16T05:04:57.593Z,14.38
2018-10-16T05:07:26.412Z,14.41
2018-10-16T05:09:55.301Z,14.43
2018-10-16T05:12:24.090Z,14.43
2018-10-16T05:14:52.877Z,14.43
2018-10-16T05:17:21.661Z,14.44
2018-10-16T05:19:50.453Z,14.48
2018-10-16T05:22:19.234Z,14.50
2018-10-16T05:24:48.036Z,14.46
2018-10-16T05:27:16.884Z,14.44
2018-10-16T05:29:45.660Z,14.40
2018-10-16T05:32:14.464Z,14.41
2018-10-16T05:34:43.344Z,14.42
2018-10-16T05:37:12.118Z,14.44
2018-10-16T05:39:40.950Z,14.45
2018-10-16T05:42:09.768Z,14.48
2018-10-16T05:44:38.550Z,14.49
2018-10-16T05:47:07.342Z,14.49
2018-10-16T05:49:36.118Z,14.50
2018-10-16T05:52:04.908Z,14.50
2018-10-16T05:54:33.669Z,14.52
2018-10-16T05:57:02.422Z,14.58
2018-10-16T05:59:31.292Z,14.62
2018-10-16T06:02:00.065Z,14.69
2018-10-16T06:04:28.841Z,14.71
2018-10-16T06:06:57.599Z,14.75
2018-10-16T06:09:26.354Z,14.78
2018-10-16T06:11:55.103Z,14.79
2018-10-16T06:14:23.868Z,14.84
2018-10-16T06:16:52.613Z,14.87
2018-10-16T06:19:21.381Z,14.90
2018-10-16T06:21:50.146Z,14.92
2018-10-16T06:24:19.049Z,14.97
2018-10-16T06:26:47.720Z,15.07
2018-10-16T06:29:16.501Z,15.21
2018-10-16T06:31:45.279Z,15.38
2018-10-16T06:34:14.032Z,15.51
2018-10-16T06:36:42.802Z,15.60
2018-10-16T06:39:11.850Z,15.65
2018-10-16T06:41:40.740Z,15.67
2018-10-16T06:44:09.517Z,15.69
2018-10-16T06:46:38.386Z,15.76
2018-10-16T06:49:07.119Z,15.87
2018-10-16T06:51:35.890Z,15.95
2018-10-16T06:54:04.632Z,16.07
2018-10-16T06:56:33.466Z,16.27
2018-10-16T06:59:02.201Z,16.34
2018-10-16T07:01:30.977Z,16.41
2018-10-16T07:03:59.717Z,16.43
2018-10-16T07:06:28.591Z,16.45
2018-10-16T07:08:57.297Z,16.43
2018-10-16T07:11:26.066Z,16.39
2018-10-16T07:13:54.885Z,16.35
2018-10-16T07:16:23.696Z,16.33
2018-10-16T07:18:52.449Z,16.36
2018-10-16T07:21:21.279Z,16.41
2018-10-16T07:23:50.022Z,16.47
2018-10-16T07:26:18.765Z,16.54
2018-10-16T07:28:47.521Z,16.62
2018-10-16T07:31:16.321Z,16.70
2018-10-16T07:33:45.089Z,16.78
2018-10-16T07:36:13.922Z,16.85
2018-10-16T07:38:42.651Z,16.92
2018-10-16T07:41:11.430Z,17.00
2018-10-16T07:43:40.221Z,17.04
2018-10-16T07:46:09.013Z,17.07
2018-10-16T07:48:37.906Z,17.09
2018-10-16T07:51:06.609Z,17.11
2018-10-16T07:53:35.473Z,17.17
2018-10-16T07:56:04.254Z,17.20
2018-10-16T07:58:33.021Z,17.22
2018-10-16T08:01:01.815Z,17.20
2018-10-16T08:03:30.628Z,17.23
2018-10-16T08:05:59.371Z,17.32
2018-10-16T08:08:28.137Z,17.40
2018-10-16T08:10:56.901Z,17.46
2018-10-16T08:13:25.742Z,17.50
2018-10-16T08:15:54.537Z,17.57
2018-10-16T08:18:23.321Z,17.62
2018-10-16T08:20:52.084Z,17.67
2018-10-16T08:23:20.938Z,17.76
2018-10-16T08:25:49.681Z,17.87
2018-10-16T08:28:18.454Z,18.02
2018-10-16T08:30:47.229Z,18.10
2018-10-16T08:33:16.092Z,18.17
2018-10-16T08:35:44.875Z,18.28
2018-10-16T08:38:21.228Z,18.22
2018-10-16T08:40:49.989Z,18.28
2018-10-16T08:43:36.686Z,18.33
2018-10-16T08:48:21.549Z,18.44
2018-10-16T08:51:01.577Z,18.66
2018-10-16T08:53:30.397Z,18.79
2018-10-16T08:56:02.465Z,18.94
2018-10-16T08:58:31.245Z,19.10
2018-10-16T09:01:00.010Z,19.24
2018-10-16T09:03:28.809Z,19.34
2018-10-16T09:05:57.626Z,19.51
2018-10-16T09:08:26.390Z,19.72
2018-10-16T09:10:55.193Z,19.96
2018-10-16T09:13:23.972Z,20.14
2018-10-16T09:15:52.750Z,20.39
2018-10-16T09:18:21.571Z,20.57
2018-10-16T09:20:50.333Z,20.74
2018-10-16T09:23:19.153Z,20.97
2018-10-16T09:25:47.950Z,21.02
2018-10-16T09:28:16.813Z,21.13
2018-10-16T09:30:45.702Z,21.16
2018-10-16T09:33:14.386Z,21.18
2018-10-16T09:35:43.201Z,21.22
2018-10-16T09:38:12.087Z,21.32
2018-10-16T09:40:40.742Z,21.41
2018-10-16T09:43:09.509Z,21.53
2018-10-16T09:45:38.341Z,21.52
2018-10-16T09:48:07.109Z,21.54
2018-10-16T09:50:35.929Z,21.57
2018-10-16T09:53:04.885Z,21.63
2018-10-16T09:55:33.658Z,21.61
2018-10-16T09:58:02.397Z,21.67
2018-10-16T10:00:36.696Z,21.73
2018-10-16T10:03:05.709Z,21.66
2018-10-16T10:05:39.936Z,21.67
2018-10-16T10:08:14.244Z,21.60
2018-10-16T10:10:48.547Z,21.57
2018-10-16T10:13:22.757Z,21.54
2018-10-16T10:15:57.236Z,21.61
2018-10-16T10:18:31.612Z,21.66
2018-10-16T10:21:06.116Z,21.74
2018-10-16T10:23:40.553Z,21.88
2018-10-16T10:26:14.997Z,22.00
2018-10-16T10:28:49.397Z,22.11
2018-10-16T10:31:23.770Z,22.22
2018-10-16T10:33:58.626Z,22.27
2018-10-16T10:36:33.173Z,22.34
2018-10-16T10:39:10.134Z,22.36
2018-10-16T10:41:38.945Z,22.37
2018-10-16T10:44:08.312Z,22.29
2018-10-16T10:46:37.215Z,22.33
2018-10-16T10:49:06.043Z,22.28
2018-10-16T10:51:35.170Z,22.21
2018-10-16T10:54:03.632Z,22.16
2018-10-16T10:56:32.586Z,22.13
2018-10-16T10:59:01.641Z,22.17
2018-10-16T11:01:30.470Z,22.25
2018-10-16T11:03:59.272Z,22.34
2018-10-16T11:06:28.045Z,22.35
2018-10-16T11:08:57.011Z,22.40
2018-10-16T11:11:25.850Z,22.47
2018-10-16T11:13:54.666Z,22.52
2018-10-16T11:16:23.510Z,22.51
2018-10-16T11:18:52.272Z,22.54
2018-10-16T11:21:21.043Z,22.59
2018-10-16T11:23:49.900Z,22.65
2018-10-16T11:26:18.761Z,22.73
2018-10-16T11:28:47.804Z,22.83
2018-10-16T11:31:16.669Z,22.96
2018-10-16T11:33:45.569Z,23.03
2018-10-16T11:36:14.421Z,23.10
2018-10-16T11:38:43.225Z,23.24
2018-10-16T11:41:12.021Z,23.39
2018-10-16T11:43:40.790Z,23.55
2018-10-16T11:46:09.586Z,23.57
2018-10-16T11:48:38.356Z,23.60
2018-10-16T11:51:07.145Z,23.59
2018-10-16T11:53:35.945Z,23.67
2018-10-16T11:56:04.758Z,23.68
2018-10-16T11:58:33.461Z,23.74
2018-10-16T12:01:02.380Z,23.70
2018-10-16T12:03:31.151Z,23.71
2018-10-16T12:06:00.157Z,23.78
2018-10-16T12:08:28.887Z,23.88
2018-10-16T12:10:57.754Z,23.94
2018-10-16T12:13:26.528Z,24.02
2018-10-16T12:15:55.290Z,24.05
2018-10-16T12:18:33.177Z,24.04
2018-10-16T12:21:07.791Z,23.95
2018-10-16T12:23:36.595Z,23.94
2018-10-16T12:26:05.610Z,23.95
2018-10-16T12:28:34.398Z,23.97
2018-10-16T12:31:03.248Z,24.04
2018-10-16T12:33:32.034Z,23.99
2018-10-16T12:36:00.836Z,23.92
2018-10-16T12:38:29.733Z,23.87
2018-10-16T12:40:59.025Z,23.83
2018-10-16T12:43:28.233Z,23.70
2018-10-16T12:45:57.438Z,23.63
2018-10-16T12:48:26.257Z,23.54
2018-10-16T12:50:55.062Z,23.54
2018-10-16T12:53:23.955Z,23.62
2018-10-16T12:55:52.754Z,23.69
2018-10-16T12:58:21.670Z,23.75
2018-10-16T13:00:50.589Z,23.73
2018-10-16T13:03:19.369Z,23.79
2018-10-16T13:05:48.229Z,23.82
2018-10-16T13:08:17.027Z,23.84
2018-10-16T13:10:45.904Z,23.87
2018-10-16T13:13:14.703Z,23.92
2018-10-16T13:15:43.496Z,23.94
2018-10-16T13:18:12.425Z,23.98
2018-10-16T13:20:41.285Z,24.03
2018-10-16T13:23:10.242Z,24.06
2018-10-16T13:25:38.980Z,24.10
2018-10-16T13:28:07.866Z,24.13
2018-10-16T13:30:36.601Z,24.13
2018-10-16T13:33:05.472Z,24.11
2018-10-16T13:35:34.245Z,24.09
2018-10-16T13:38:03.050Z,24.07
2018-10-16T13:40:31.797Z,24.01
2018-10-16T13:43:00.600Z,23.92
2018-10-16T13:45:29.353Z,23.88
2018-10-16T13:47:58.144Z,23.87
2018-10-16T13:50:26.913Z,23.74
2018-10-16T13:52:55.676Z,23.67
2018-10-16T13:55:24.490Z,23.54
2018-10-16T13:57:53.290Z,23.54
2018-10-16T14:00:22.026Z,23.46
2018-10-16T14:02:51.984Z,23.36
2018-10-16T14:05:20.785Z,23.29
2018-10-16T14:07:49.573Z,23.19
2018-10-16T14:10:18.661Z,23.16
2018-10-16T14:12:48.144Z,23.15
2018-10-16T14:15:17.475Z,23.03
2018-10-16T14:17:46.258Z,22.99
2018-10-16T14:20:15.058Z,22.92
2018-10-16T14:22:44.138Z,22.87
2018-10-16T14:25:14.251Z,22.86
2018-10-16T14:27:43.241Z,22.83
2018-10-16T14:30:14.197Z,22.83
2018-10-16T14:32:43.385Z,22.83
2018-10-16T14:35:12.693Z,22.78
2018-10-16T14:37:41.677Z,22.80
2018-10-16T14:40:12.543Z,22.84
2018-10-16T14:42:41.504Z,22.83
2018-10-16T14:45:11.229Z,22.89
2018-10-16T14:47:39.995Z,22.88
2018-10-16T14:50:09.600Z,22.85
2018-10-16T14:52:38.271Z,22.94
2018-10-16T14:55:07.033Z,23.01
2018-10-16T14:57:35.904Z,23.09
2018-10-16T15:00:06.290Z,23.16
2018-10-16T15:02:35.070Z,23.22
2018-10-16T15:05:04.270Z,23.19
2018-10-16T15:07:33.035Z,23.17
2018-10-16T15:10:01.918Z,23.17
2018-10-16T15:12:30.965Z,23.18
2018-10-16T15:15:00.283Z,23.20
2018-10-16T15:17:29.658Z,23.21
2018-10-16T15:19:58.698Z,23.21
2018-10-16T15:22:27.768Z,23.19
2018-10-16T15:24:56.549Z,23.21
2018-10-16T15:27:25.417Z,23.19
2018-10-16T15:29:54.325Z,23.19
2018-10-16T15:32:23.156Z,23.18
2018-10-16T15:34:52.001Z,23.19
2018-10-16T15:37:21.115Z,23.19
2018-10-16T15:39:49.958Z,23.20
2018-10-16T15:42:18.846Z,23.22
2018-10-16T15:44:47.629Z,23.19
2018-10-16T15:47:16.436Z,23.15
2018-10-16T15:49:45.257Z,23.22
2018-10-16T15:52:14.176Z,23.20
2018-10-16T15:54:42.849Z,23.18
2018-10-16T15:57:11.666Z,23.09
2018-10-16T15:59:40.437Z,23.05
2018-10-16T16:02:09.287Z,22.99
2018-10-16T16:04:38.045Z,22.94
2018-10-16T16:07:06.809Z,22.87
2018-10-16T16:09:35.597Z,22.77
2018-10-16T16:12:04.548Z,22.65
2018-10-16T16:14:33.253Z,22.57
2018-10-16T16:17:02.136Z,22.49
2018-10-16T16:19:30.898Z,22.39
2018-10-16T16:21:59.680Z,22.32
2018-10-16T16:24:28.505Z,22.21
2018-10-16T16:26:57.278Z,22.12
2018-10-16T16:29:26.038Z,22.02
2018-10-16T16:31:54.931Z,21.97
2018-10-16T16:34:23.648Z,21.91
2018-10-16T16:36:52.494Z,21.89
2018-10-16T16:39:21.175Z,21.82
2018-10-16T16:41:50.053Z,21.51
2018-10-16T16:44:18.806Z,21.68
2018-10-16T16:46:47.583Z,21.63
2018-10-16T16:49:16.365Z,21.53
2018-10-16T16:51:45.112Z,21.49
2018-10-16T16:54:13.886Z,21.40
2018-10-16T16:56:42.633Z,21.37
2018-10-16T16:59:11.541Z,21.34
2018-10-16T17:01:40.177Z,21.24
2018-10-16T17:04:08.988Z,21.20
2018-10-16T17:06:37.690Z,21.10
2018-10-16T17:09:09.661Z,21.05
2018-10-16T17:11:38.491Z,20.99
2018-10-16T17:14:07.602Z,20.93
2018-10-16T17:16:36.438Z,20.89
2018-10-16T17:19:05.825Z,20.84
2018-10-16T17:21:34.614Z,20.79
2018-10-16T17:24:03.529Z,20.74
2018-10-16T17:26:32.389Z,20.72
2018-10-16T17:29:01.339Z,20.70
2018-10-16T17:31:30.166Z,20.67
2018-10-16T17:33:59.036Z,20.63
2018-10-16T17:36:28.825Z,20.57
2018-10-16T17:38:57.628Z,20.55
2018-10-16T17:41:26.415Z,20.55
2018-10-16T17:43:55.240Z,20.50
2018-10-16T17:46:24.206Z,20.49
2018-10-16T17:48:54.099Z,20.45
2018-10-16T17:51:22.889Z,20.41
2018-10-16T17:53:51.782Z,20.37
2018-10-16T17:56:20.703Z,20.34
2018-10-16T17:58:49.481Z,20.31
2018-10-16T18:01:18.253Z,20.29
2018-10-16T18:03:47.004Z,20.27
2018-10-16T18:06:15.818Z,20.26
2018-10-16T18:08:44.588Z,20.25
2018-10-16T18:11:13.409Z,20.23
2018-10-16T18:13:42.170Z,20.22
2018-10-16T18:16:10.951Z,20.20
2018-10-16T18:18:39.706Z,20.19
2018-10-16T18:21:08.555Z,20.17
2018-10-16T18:23:37.384Z,20.16
2018-10-16T18:26:06.138Z,20.14
2018-10-16T18:28:34.893Z,20.13
2018-10-16T18:31:03.656Z,20.12
2018-10-16T18:33:32.893Z,20.09
2018-10-16T18:36:01.696Z,20.05
2018-10-16T18:38:30.694Z,20.02
2018-10-16T18:40:59.551Z,19.98
2018-10-16T18:43:28.916Z,19.95
2018-10-16T18:45:57.819Z,19.92
2018-10-16T18:48:26.614Z,19.90
2018-10-16T18:50:55.432Z,19.86
2018-10-16T18:53:24.301Z,19.77
2018-10-16T18:55:53.062Z,19.79
2018-10-16T18:58:21.884Z,19.74
2018-10-16T19:00:50.660Z,19.73
2018-10-16T19:03:19.445Z,19.69
2018-10-16T19:05:48.227Z,19.66
2018-10-16T19:08:16.989Z,19.63
2018-10-16T19:10:45.885Z,19.60
2018-10-16T19:13:14.668Z,19.57
2018-10-16T19:15:43.485Z,19.54
2018-10-16T19:18:12.273Z,19.52
2018-10-16T19:20:41.064Z,19.49
2018-10-16T19:23:09.838Z,19.45
2018-10-16T19:25:38.672Z,19.43
2018-10-16T19:28:07.673Z,19.40
2018-10-16T19:30:36.442Z,19.37
2018-10-16T19:33:05.440Z,19.35
2018-10-16T19:35:34.205Z,19.33
2018-10-16T19:38:02.971Z,19.30
2018-10-16T19:40:31.829Z,19.25
2018-10-16T19:43:00.637Z,19.21
2018-10-16T19:45:29.462Z,19.15
2018-10-16T19:47:58.193Z,19.14
2018-10-16T19:50:26.981Z,19.08
2018-10-16T19:52:55.746Z,19.06
2018-10-16T19:55:25.341Z,19.01
2018-10-16T19:57:54.221Z,18.97
2018-10-16T20:00:23.023Z,18.93
2018-10-16T20:02:51.803Z,18.90
2018-10-16T20:05:20.583Z,18.89
2018-10-16T20:07:49.362Z,18.87
2018-10-16T20:10:18.265Z,18.85
2018-10-16T20:12:47.051Z,18.84
2018-10-16T20:15:15.841Z,18.83
2018-10-16T20:17:44.637Z,18.82
2018-10-16T20:20:13.823Z,18.82
2018-10-16T20:22:43.638Z,18.80
2018-10-16T20:25:12.570Z,18.77
2018-10-16T20:27:41.370Z,18.72
2018-10-16T20:30:11.482Z,18.68
2018-10-16T20:32:40.575Z,18.64
2018-10-16T20:35:09.398Z,18.60
2018-10-16T20:37:38.230Z,18.54
2018-10-16T20:40:07.337Z,18.51
2018-10-16T20:42:37.186Z,18.49
2018-10-16T20:45:06.326Z,18.46
2018-10-16T20:47:35.257Z,18.44
2018-10-16T20:50:04.077Z,18.42
2018-10-16T20:52:32.863Z,18.40
2018-10-16T20:55:01.770Z,18.35
2018-10-16T20:57:30.590Z,18.30
2018-10-16T20:59:59.673Z,18.19
2018-10-16T21:02:28.537Z,18.12
2018-10-16T21:04:57.476Z,18.09
2018-10-16T21:07:26.207Z,18.07
2018-10-16T21:09:55.031Z,18.06
2018-10-16T21:12:23.856Z,18.02
2018-10-16T21:14:52.622Z,18.03
2018-10-16T21:17:21.393Z,18.02
2018-10-16T21:19:50.139Z,18.00
2018-10-16T21:22:20.929Z,17.97
2018-10-16T21:24:49.701Z,17.96
2018-10-16T21:27:18.513Z,17.94
2018-10-16T21:29:47.452Z,17.93
2018-10-16T21:32:16.214Z,17.92
2018-10-16T21:34:45.016Z,17.91
2018-10-16T21:37:14.006Z,17.91
2018-10-16T21:39:42.697Z,17.89
2018-10-16T21:42:11.448Z,17.86
2018-10-16T21:44:40.224Z,17.83
2018-10-16T21:47:09.004Z,17.82
2018-10-16T21:49:37.809Z,17.80
2018-10-16T21:52:06.562Z,17.81
2018-10-16T21:54:35.307Z,17.79
2018-10-16T21:57:04.184Z,17.80
2018-10-16T21:59:32.978Z,17.75
2018-10-16T22:02:06.937Z,17.72
2018-10-16T22:04:35.676Z,17.69
2018-10-16T22:07:04.585Z,17.65
2018-10-16T22:09:33.252Z,17.64
2018-10-16T22:12:02.050Z,17.63
2018-10-16T22:14:30.799Z,17.58
2018-10-16T22:16:59.588Z,17.53
2018-10-16T22:19:28.409Z,17.51
2018-10-16T22:21:57.167Z,17.43
2018-10-16T22:24:25.947Z,17.35
2018-10-16T22:26:54.692Z,17.26
2018-10-16T22:29:23.489Z,17.18
2018-10-16T22:31:52.224Z,17.16
2018-10-16T22:34:21.133Z,17.10
2018-10-16T22:36:49.930Z,17.04
2018-10-16T22:39:18.724Z,16.97
2018-10-16T22:41:47.500Z,16.93
2018-10-16T22:44:16.237Z,16.91
2018-10-16T22:46:44.990Z,16.86
2018-10-16T22:49:13.820Z,16.82
2018-10-16T22:51:42.512Z,16.77
2018-10-16T22:54:11.257Z,16.74
2018-10-16T22:56:40.206Z,16.70
2018-10-16T22:59:09.015Z,16.67
2018-10-16T23:01:37.706Z,16.65
2018-10-16T23:04:06.462Z,16.59
2018-10-16T23:06:35.227Z,16.55
2018-10-16T23:09:05.010Z,16.51
2018-10-16T23:11:33.817Z,16.47
2018-10-16T23:14:02.536Z,16.45
2018-10-16T23:16:31.310Z,16.42
2018-10-16T23:19:00.109Z,16.42
2018-10-16T23:21:28.820Z,16.38
2018-10-16T23:23:57.580Z,16.33
2018-10-16T23:26:26.325Z,16.32
2018-10-16T23:28:55.120Z,16.31
2018-10-16T23:31:23.924Z,16.24
2018-10-16T23:33:52.688Z,16.16
2018-10-16T23:36:21.434Z,16.10
2018-10-16T23:38:50.181Z,16.07
2018-10-16T23:41:18.956Z,16.03
2018-10-16T23:43:47.730Z,15.97
2018-10-16T23:46:16.472Z,15.94
2018-10-16T23:48:45.220Z,15.90
2018-10-16T23:51:13.964Z,15.87
2018-10-16T23:53:42.716Z,15.84
2018-10-16T23:56:11.466Z,15.78
2018-10-16T23:58:40.221Z,15.75
